Fayette, MO (65248)

2:03 PM CDT on September 29, 2016 (GMT -0500)
Club Wood | | Change Station

Elev 650 ft 39.11 °N, 92.69 °W | Updated 3 seconds ago

Clear
Clear
72.7 °F
Feels Like 75 °F
N
6.7
Wind Variable Wind from West
Gusts 7.4 mph

Today
High -- | Low -- °F
--% Chance of Precip.
Yesterday
High -- | Low -- °F
Precip. -- in
Pressure 30.25 in
Visibility 10.0 miles
Clouds Clear
Heat Index 75 °F
Dew Point 27 °F
Humidity 18%
Rainfall 0.00 in
Snow Depth Not available.
7:05 AM 6:55 PM
Waning Crescent, 1% visible
METAR KVER 291855Z AUTO 35010G17KT 10SM CLR 23/09 A3025 RMK AO2 T02290085
Pressure 30.25 in
Visibility 10.0 miles
Clouds Clear
Heat Index 75 °F
Dew Point 27 °F
Humidity 18%
Rainfall 0.00 in
Snow Depth Not available.
7:05 AM 6:55 PM
Waning Crescent, 1% visible
METAR KVER 291855Z AUTO 35010G17KT 10SM CLR 23/09 A3025 RMK AO2 T02290085

10-Day Weather Forecast

Almanac

Astronomy

Sep. 29, 2016 Rise Set
Actual Time
Civil Twilight
Nautical Twilight
Astronomical Twilight
Moon
Length of Visible Light
Length of Day
Tomorrow will be .
, % of the Moon is Illuminated

Today's Extremes

State Highs State Lows

Community

WunderPhotos

Upload Photos

1,942,546 photos uploaded!

WunderBlog® & News

Nearby

Air Quality

  Air Quality AQ Index Pollutant
Not available.

Snow Depth

Station Depth Elevation

Earthquake Activity

City Distance Mag. Time & Date
Minimum magnitude displayed is 2.5.

Coastal Water Temperatures

Place Temperature

Stations

Nearby Weather Stations

Station Location Temp. Windchill Dew Point Humidity Wind Precip. Elev Updated Type
                   

Watches & Warnings

There are currently no watches in effect.